Time;durP1;ratioP1;P1;durP2;ratioP2;P2;SDS_P1;SDS_P2;PMS_P1;PMS_P2;Temp;Humidity;BMP_temperature;BMP_pressure;BME280_temperature;BME280_humidity;BME280_pressure;Samples;Min_cycle;Max_cycle;Signal;HPM_P1;HPM_P2
2023/07/05 00:01:58;;;;;;;;;;;;;;;-144.86;100.00;65694.16;5066058;28;19930;-62
2023/07/05 00:04:27;;;;;;;;;;;;;;;-144.86;100.00;65694.16;5088129;28;19924;-62
2023/07/05 00:06:55;;;;;;;;;;;;;;;-144.86;100.00;65694.16;5077121;28;19924;-63
2023/07/05 00:09:22;;;;;;;;;;;;;;;-144.86;100.00;65694.16;5085332;28;19924;-62
2023/07/05 00:11:50;;;;;;;;;;;;;;;-144.86;100.00;65694.16;5084141;28;20378;-63
2023/07/05 00:14:18;;;;;;;;;;;;;;;-144.86;100.00;65694.16;5087913;28;19931;-63
2023/07/05 00:16:47;;;;;;;;;;;;;;;-144.86;100.00;65694.16;5068346;28;19924;-63
2023/07/05 00:19:15;;;;;;;;;;;;;;;-144.86;100.00;65694.16;5068351;28;19959;-63
2023/07/05 00:21:44;;;;;;;;;;;;;;;-144.86;100.00;65694.16;5070376;28;20027;-62
2023/07/05 00:24:12;;;;;;;;;;;;;;;-144.86;100.00;65694.16;5088693;28;19951;-63
2023/07/05 00:26:40;;;;;;;;;;;;;;;-144.86;100.00;65694.16;5090225;28;19936;-63
2023/07/05 00:29:11;;;;;;;;;;;;;;;-144.86;100.00;65694.16;5090890;28;20339;-63
2023/07/05 00:31:39;;;;;;;;;;;;;;;-144.86;100.00;65694.16;5073307;28;19931;-63
2023/07/05 00:34:07;;;;;;;;;;;;;;;-144.86;100.00;65694.16;5083558;28;19925;-63
2023/07/05 00:36:35;;;;;;;;;;;;;;;-144.86;100.00;65694.16;5063985;28;19932;-62
2023/07/05 00:39:04;;;;;;;;;;;;;;;-144.86;100.00;65694.16;5057806;28;19932;-63
2023/07/05 00:41:32;;;;;;;;;;;;;;;-144.86;100.00;65694.16;5067895;28;20381;-63
2023/07/05 00:44:00;;;;;;;;;;;;;;;-144.86;100.00;65694.16;5064170;28;20387;-62
2023/07/05 00:46:28;;;;;;;;;;;;;;;-144.86;100.00;65694.16;5060087;28;20327;-63
2023/07/05 00:48:56;;;;;;;;;;;;;;;-144.86;100.00;65694.16;5081074;28;19924;-62
2023/07/05 00:51:25;;;;;;;;;;;;;;;-144.86;100.00;65694.16;5064321;28;20361;-63
2023/07/05 00:53:53;;;;;;;;;;;;;;;-144.86;100.00;65694.16;5072366;28;19924;-62
2023/07/05 00:56:23;;;;;;;;;;;;;;;-144.86;100.00;65694.16;5074030;28;19957;-63
2023/07/05 00:58:51;;;;;;;;;;;;;;;-144.86;100.00;65694.16;5088109;28;20026;-63
2023/07/05 01:01:23;;;;;;;;;;;;;;;-144.86;100.00;65694.16;5070343;28;20391;-63
2023/07/05 01:03:53;;;;;;;;;;;;;;;-144.86;100.00;65694.16;5080730;28;20381;-62
2023/07/05 01:06:22;;;;;;;;;;;;;;;-144.86;100.00;65694.16;5070261;28;20022;-62
2023/07/05 01:08:50;;;;;;;;;;;;;;;-144.86;100.00;65694.16;5088720;28;19956;-62
2023/07/05 01:11:19;;;;;;;;;;;;;;;-144.86;100.00;65694.16;5071511;28;20091;-63
2023/07/05 01:13:52;;;;;;;;;;;;;;;-144.86;100.00;65694.16;5066578;28;20018;-63
2023/07/05 01:16:27;;;;;;;;;;;;;;;-144.86;100.00;65694.16;5081429;28;19924;-62
2023/07/05 01:18:57;;;;;;;;;;;;;;;-144.86;100.00;65694.16;5070447;28;19978;-62
2023/07/05 01:21:26;;;;;;;;;;;;;;;-144.86;100.00;65694.16;5073200;28;19924;-62
2023/07/05 01:24:04;;;;;;;;;;;;;;;-144.86;100.00;65694.16;5087305;28;19924;-63
2023/07/05 01:26:42;;;;;;;;;;;;;;;-144.86;100.00;65694.16;5086231;28;19932;-62
2023/07/05 01:29:42;;;;;;;;;;;;;;;-144.86;100.00;65694.16;5083741;28;19924;-62
2023/07/05 01:32:15;;;;;;;;;;;;;;;-144.86;100.00;65694.16;5086906;28;19947;-62
2023/07/05 01:34:48;;;;;;;;;;;;;;;-144.86;100.00;65694.16;5072153;28;20580;-63
2023/07/05 01:37:29;;;;;;;;;;;;;;;-144.86;100.00;65694.16;5081718;28;19929;-62
2023/07/05 01:39:58;;;;;;;;;;;;;;;-144.86;100.00;65694.16;5064378;28;20304;-61
2023/07/05 01:42:27;;;;;;;;;;;;;;;-144.86;100.00;65694.16;5068816;28;20007;-62
2023/07/05 01:44:55;;;;;;;;;;;;;;;-144.86;100.00;65694.16;5085452;28;20405;-63
2023/07/05 01:47:26;;;;;;;;;;;;;;;-144.86;100.00;65694.16;5072999;28;20005;-63
2023/07/05 01:49:55;;;;;;;;;;;;;;;-144.86;100.00;65694.16;5061901;28;20018;-63
2023/07/05 01:52:27;;;;;;;;;;;;;;;-144.86;100.00;65694.16;5071514;28;19928;-63
2023/07/05 01:54:59;;;;;;;;;;;;;;;-144.86;100.00;65694.16;5071551;28;19932;-63
2023/07/05 01:57:29;;;;;;;;;;;;;;;-144.86;100.00;65694.16;5069575;28;19970;-63
2023/07/05 01:59:58;;;;;;;;;;;;;;;-144.86;100.00;65694.16;5068184;28;19977;-62
2023/07/05 02:02:29;;;;;;;;;;;;;;;-144.86;100.00;65694.16;5069829;28;20409;-63
2023/07/05 02:04:58;;;;;;;;;;;;;;;-144.86;100.00;65694.16;5062957;28;19924;-63
2023/07/05 02:07:26;;;;;;;;;;;;;;;-144.86;100.00;65694.16;5085022;28;19977;-63
2023/07/05 02:09:54;;;;;;;;;;;;;;;-144.86;100.00;65694.16;5063573;28;20389;-63
2023/07/05 02:12:21;;;;;;;;;;;;;;;-144.86;100.00;65694.16;5066827;28;19931;-62
2023/07/05 02:14:49;;;;;;;;;;;;;;;-144.86;100.00;65694.16;5090098;28;19930;-63
2023/07/05 02:17:18;;;;;;;;;;;;;;;-144.86;100.00;65694.16;5080625;28;19955;-63
2023/07/05 02:19:47;;;;;;;;;;;;;;;-144.86;100.00;65694.16;5066798;28;19938;-63
2023/07/05 02:22:15;;;;;;;;;;;;;;;-144.86;100.00;65694.16;5068240;28;19934;-62
2023/07/05 02:24:42;;;;;;;;;;;;;;;-144.86;100.00;65694.16;5087766;28;19928;-62
2023/07/05 02:27:10;;;;;;;;;;;;;;;-144.86;100.00;65694.16;5066162;28;19994;-63
2023/07/05 02:29:38;;;;;;;;;;;;;;;-144.86;100.00;65694.16;5072374;28;19924;-62
2023/07/05 02:32:09;;;;;;;;;;;;;;;-144.86;100.00;65694.16;5070003;28;20293;-62
2023/07/05 02:34:38;;;;;;;;;;;;;;;-144.86;100.00;65694.16;5057036;28;19924;-62
2023/07/05 02:37:07;;;;;;;;;;;;;;;-144.86;100.00;65694.16;5076756;28;20033;-63
2023/07/05 02:39:35;;;;;;;;;;;;;;;-144.86;100.00;65694.16;5061580;28;20583;-63
2023/07/05 02:42:03;;;;;;;;;;;;;;;-144.86;100.00;65694.16;5087668;28;19959;-63
2023/07/05 02:44:31;;;;;;;;;;;;;;;-144.86;100.00;65694.16;5070125;28;19970;-62
2023/07/05 02:46:59;;;;;;;;;;;;;;;-144.86;100.00;65694.16;5082685;28;19946;-61
2023/07/05 02:49:26;;;;;;;;;;;;;;;-144.86;100.00;65694.16;5069138;28;20018;-63
2023/07/05 02:51:54;;;;;;;;;;;;;;;-144.86;100.00;65694.16;5079885;28;19931;-63
2023/07/05 02:54:23;;;;;;;;;;;;;;;-144.86;100.00;65694.16;5078457;28;19964;-62
2023/07/05 02:56:51;;;;;;;;;;;;;;;-144.86;100.00;65694.16;5082384;28;19927;-62
2023/07/05 02:59:19;;;;;;;;;;;;;;;-144.86;100.00;65694.16;5060131;28;19986;-62
2023/07/05 03:01:48;;;;;;;;;;;;;;;-144.86;100.00;65694.16;5068562;28;19924;-62
2023/07/05 03:04:16;;;;;;;;;;;;;;;-144.86;100.00;65694.16;5068467;28;19924;-62
2023/07/05 03:06:44;;;;;;;;;;;;;;;-144.86;100.00;65694.16;5070265;28;19924;-63
2023/07/05 03:09:12;;;;;;;;;;;;;;;-144.86;100.00;65694.16;5086094;28;19929;-62
2023/07/05 03:11:41;;;;;;;;;;;;;;;-144.86;100.00;65694.16;5067311;28;19966;-63
2023/07/05 03:14:09;;;;;;;;;;;;;;;-144.86;100.00;65694.16;5076960;28;19928;-62
2023/07/05 03:16:37;;;;;;;;;;;;;;;-144.86;100.00;65694.16;5069882;28;19928;-63
2023/07/05 03:19:05;;;;;;;;;;;;;;;-144.86;100.00;65694.16;5085942;28;19932;-62
2023/07/05 03:21:33;;;;;;;;;;;;;;;-144.86;100.00;65694.16;5076978;28;20377;-64
2023/07/05 03:24:01;;;;;;;;;;;;;;;-144.86;100.00;65694.16;5082635;28;19977;-65
2023/07/05 03:26:29;;;;;;;;;;;;;;;-144.86;100.00;65694.16;5082321;28;19954;-62
2023/07/05 03:28:58;;;;;;;;;;;;;;;-144.86;100.00;65694.16;5068529;28;19963;-62
2023/07/05 03:31:27;;;;;;;;;;;;;;;-144.86;100.00;65694.16;5073659;28;19943;-62
2023/07/05 03:33:55;;;;;;;;;;;;;;;-144.86;100.00;65694.16;5066784;28;19925;-62
2023/07/05 03:36:23;;;;;;;;;;;;;;;-144.86;100.00;65694.16;5091514;28;19928;-63
2023/07/05 03:38:51;;;;;;;;;;;;;;;-144.86;100.00;65694.16;5066105;28;19928;-62
2023/07/05 03:41:20;;;;;;;;;;;;;;;-144.86;100.00;65694.16;5089957;28;19928;-63
2023/07/05 03:43:48;;;;;;;;;;;;;;;-144.86;100.00;65694.16;5064397;28;20027;-63
2023/07/05 03:46:17;;;;;;;;;;;;;;;-144.86;100.00;65694.16;5082932;28;19924;-62
2023/07/05 03:48:45;;;;;;;;;;;;;;;-144.86;100.00;65694.16;5091569;28;19952;-63
2023/07/05 03:51:14;;;;;;;;;;;;;;;-144.86;100.00;65694.16;5090236;28;20472;-63
2023/07/05 03:53:42;;;;;;;;;;;;;;;-144.86;100.00;65694.16;5070508;28;19967;-63
2023/07/05 03:56:10;;;;;;;;;;;;;;;-144.86;100.00;65694.16;5070509;28;20329;-63
2023/07/05 03:58:38;;;;;;;;;;;;;;;-144.86;100.00;65694.16;5080260;28;20399;-62
2023/07/05 04:01:07;;;;;;;;;;;;;;;-144.86;100.00;65694.16;5073611;28;20065;-62
2023/07/05 04:03:36;;;;;;;;;;;;;;;-144.86;100.00;65694.16;5063928;28;19932;-62
2023/07/05 04:06:04;;;;;;;;;;;;;;;-144.86;100.00;65694.16;5090107;28;20283;-62
2023/07/05 04:08:32;;;;;;;;;;;;;;;-144.86;100.00;65694.16;5072554;28;20361;-62
2023/07/05 04:11:00;;;;;;;;;;;;;;;-144.86;100.00;65694.16;5068240;28;19970;-62
2023/07/05 04:13:27;;;;;;;;;;;;;;;-144.86;100.00;65694.16;5087962;28;19932;-62
2023/07/05 04:16:06;;;;;;;;;;;;;;;-144.86;100.00;65694.16;5070057;28;19946;-63
2023/07/05 04:18:36;;;;;;;;;;;;;;;-144.86;100.00;65694.16;5086568;28;19940;-62
2023/07/05 04:21:04;;;;;;;;;;;;;;;-144.86;100.00;65694.16;5078585;28;19928;-62
2023/07/05 04:23:31;;;;;;;;;;;;;;;-144.86;100.00;65694.16;5080467;28;19924;-62
2023/07/05 04:26:00;;;;;;;;;;;;;;;-144.86;100.00;65694.16;5086314;28;20025;-62
2023/07/05 04:28:28;;;;;;;;;;;;;;;-144.86;100.00;65694.16;5063696;28;19924;-62
2023/07/05 04:30:56;;;;;;;;;;;;;;;-144.86;100.00;65694.16;5082730;28;19928;-62
2023/07/05 04:33:24;;;;;;;;;;;;;;;-144.86;100.00;65694.16;5077939;28;19925;-62
2023/07/05 04:35:55;;;;;;;;;;;;;;;-144.86;100.00;65694.16;5070910;28;19932;-62
2023/07/05 04:38:22;;;;;;;;;;;;;;;-144.86;100.00;65694.16;5083914;28;19959;-62
2023/07/05 04:40:50;;;;;;;;;;;;;;;-144.86;100.00;65694.16;5077671;28;19960;-62
2023/07/05 04:43:18;;;;;;;;;;;;;;;-144.86;100.00;65694.16;5080154;28;19929;-62
2023/07/05 04:45:49;;;;;;;;;;;;;;;-144.86;100.00;65694.16;5086698;28;19928;-62
2023/07/05 04:48:17;;;;;;;;;;;;;;;-144.86;100.00;65694.16;5086758;28;19978;-62
2023/07/05 04:50:45;;;;;;;;;;;;;;;-144.86;100.00;65694.16;5085544;28;19928;-63
2023/07/05 04:53:14;;;;;;;;;;;;;;;-144.86;100.00;65694.16;5087782;28;20450;-62
2023/07/05 04:55:44;;;;;;;;;;;;;;;-144.86;100.00;65694.16;5087465;28;19989;-62
2023/07/05 04:58:12;;;;;;;;;;;;;;;-144.86;100.00;65694.16;5081690;28;19925;-62
2023/07/05 05:00:40;;;;;;;;;;;;;;;-144.86;100.00;65694.16;5065738;28;20031;-62
2023/07/05 05:03:08;;;;;;;;;;;;;;;-144.86;100.00;65694.16;5066427;28;19993;-62
2023/07/05 05:05:36;;;;;;;;;;;;;;;-144.86;100.00;65694.16;5068266;28;19932;-62
2023/07/05 05:08:03;;;;;;;;;;;;;;;-144.86;100.00;65694.16;5070602;28;19981;-62
2023/07/05 05:10:33;;;;;;;;;;;;;;;-144.86;100.00;65694.16;5083644;28;19924;-62
2023/07/05 05:13:00;;;;;;;;;;;;;;;-144.86;100.00;65694.16;5071814;28;20421;-62
2023/07/05 05:15:28;;;;;;;;;;;;;;;-144.86;100.00;65694.16;5066487;28;19924;-62
2023/07/05 05:17:57;;;;;;;;;;;;;;;-144.86;100.00;65694.16;5078657;28;19935;-62
2023/07/05 05:20:24;;;;;;;;;;;;;;;-144.86;100.00;65694.16;5085629;28;19977;-62
2023/07/05 05:22:52;;;;;;;;;;;;;;;-144.86;100.00;65694.16;5086394;28;19970;-62
2023/07/05 05:25:20;;;;;;;;;;;;;;;-144.86;100.00;65694.16;5088412;28;19959;-61
2023/07/05 05:27:49;;;;;;;;;;;;;;;-144.86;100.00;65694.16;5081867;28;19989;-62
2023/07/05 05:30:17;;;;;;;;;;;;;;;-144.86;100.00;65694.16;5076151;28;19924;-61
2023/07/05 05:32:45;;;;;;;;;;;;;;;-144.86;100.00;65694.16;5081176;28;20360;-61
2023/07/05 05:35:13;;;;;;;;;;;;;;;-144.86;100.00;65694.16;5081396;28;20389;-62
2023/07/05 05:37:41;;;;;;;;;;;;;;;-144.86;100.00;65694.16;5085947;28;20057;-61
2023/07/05 05:40:09;;;;;;;;;;;;;;;-144.86;100.00;65694.16;5071843;28;20388;-61
2023/07/05 05:42:37;;;;;;;;;;;;;;;-144.86;100.00;65694.16;5087091;28;20361;-61
2023/07/05 05:45:07;;;;;;;;;;;;;;;-144.86;100.00;65694.16;5078374;28;19924;-61
2023/07/05 05:47:35;;;;;;;;;;;;;;;-144.86;100.00;65694.16;5063176;28;19967;-62
2023/07/05 05:50:03;;;;;;;;;;;;;;;-144.86;100.00;65694.16;5089506;28;19931;-62
2023/07/05 05:52:31;;;;;;;;;;;;;;;-144.86;100.00;65694.16;5077088;28;19925;-62
2023/07/05 05:54:59;;;;;;;;;;;;;;;-144.86;100.00;65694.16;5085911;28;19924;-61
2023/07/05 05:57:27;;;;;;;;;;;;;;;-144.86;100.00;65694.16;5083329;28;20011;-62
2023/07/05 05:59:54;;;;;;;;;;;;;;;-144.86;100.00;65694.16;5082078;28;20027;-62
2023/07/05 06:02:24;;;;;;;;;;;;;;;-144.86;100.00;65694.16;5087920;28;20011;-62
2023/07/05 06:04:52;;;;;;;;;;;;;;;-144.86;100.00;65694.16;5085324;28;19924;-62
2023/07/05 06:07:20;;;;;;;;;;;;;;;-144.86;100.00;65694.16;5087871;28;20292;-63
2023/07/05 06:09:48;;;;;;;;;;;;;;;-144.86;100.00;65694.16;5062924;28;19928;-61
2023/07/05 06:12:16;;;;;;;;;;;;;;;-144.86;100.00;65694.16;5075850;28;20357;-62
2023/07/05 06:14:44;;;;;;;;;;;;;;;-144.86;100.00;65694.16;5065221;28;19924;-62
2023/07/05 06:17:12;;;;;;;;;;;;;;;-144.86;100.00;65694.16;5080452;28;19968;-61
2023/07/05 06:19:41;;;;;;;;;;;;;;;-144.86;100.00;65694.16;5068805;28;19982;-62
2023/07/05 06:22:10;;;;;;;;;;;;;;;-144.86;100.00;65694.16;5082680;28;20507;-62
2023/07/05 06:24:42;;;;;;;;;;;;;;;-144.86;100.00;65694.16;5081417;28;19932;-62
2023/07/05 06:27:09;;;;;;;;;;;;;;;-144.86;100.00;65694.16;5084037;28;19928;-62
2023/07/05 06:29:37;;;;;;;;;;;;;;;-144.86;100.00;65694.16;5089554;28;20369;-62
2023/07/05 06:32:05;;;;;;;;;;;;;;;-144.86;100.00;65694.16;5083484;28;19925;-62
2023/07/05 06:34:33;;;;;;;;;;;;;;;-144.86;100.00;65694.16;5064227;28;20274;-62
2023/07/05 06:37:02;;;;;;;;;;;;;;;-144.86;100.00;65694.16;5082739;28;19989;-61
2023/07/05 06:39:30;;;;;;;;;;;;;;;-144.86;100.00;65694.16;5083670;28;20418;-62
2023/07/05 06:41:58;;;;;;;;;;;;;;;-144.86;100.00;65694.16;5085216;28;19928;-61
2023/07/05 06:44:31;;;;;;;;;;;;;;;-144.86;100.00;65694.16;5074148;28;20420;-61
2023/07/05 06:46:59;;;;;;;;;;;;;;;-144.86;100.00;65694.16;5081689;28;19924;-61
2023/07/05 06:49:27;;;;;;;;;;;;;;;-144.86;100.00;65694.16;5085472;28;19969;-62
2023/07/05 06:51:55;;;;;;;;;;;;;;;-144.86;100.00;65694.16;5078686;28;19924;-62
2023/07/05 06:54:24;;;;;;;;;;;;;;;-144.86;100.00;65694.16;5095002;28;20368;-62
2023/07/05 06:56:52;;;;;;;;;;;;;;;-144.86;100.00;65694.16;5076699;28;19986;-62
2023/07/05 06:59:20;;;;;;;;;;;;;;;-144.86;100.00;65694.16;5084016;28;19924;-62
2023/07/05 07:01:48;;;;;;;;;;;;;;;-144.86;100.00;65694.16;5089073;28;20415;-61
2023/07/05 07:04:15;;;;;;;;;;;;;;;-144.86;100.00;65694.16;5072544;28;19931;-61
2023/07/05 07:06:43;;;;;;;;;;;;;;;-144.86;100.00;65694.16;5090287;28;19924;-62
2023/07/05 07:09:12;;;;;;;;;;;;;;;-144.86;100.00;65694.16;5084423;28;19924;-62
2023/07/05 07:11:41;;;;;;;;;;;;;;;-144.86;100.00;65694.16;5067276;28;20424;-62
2023/07/05 07:14:09;;;;;;;;;;;;;;;-144.86;100.00;65694.16;5091983;28;19957;-62
2023/07/05 07:16:37;;;;;;;;;;;;;;;-144.86;100.00;65694.16;5090112;28;19923;-62
2023/07/05 07:19:07;;;;;;;;;;;;;;;-144.86;100.00;65694.16;5083925;28;19924;-62
2023/07/05 07:21:34;;;;;;;;;;;;;;;-144.86;100.00;65694.16;5089233;28;20392;-61
2023/07/05 07:24:02;;;;;;;;;;;;;;;-144.86;100.00;65694.16;5092805;28;19924;-62
2023/07/05 07:26:30;;;;;;;;;;;;;;;-144.86;100.00;65694.16;5063834;28;19924;-62
2023/07/05 07:28:59;;;;;;;;;;;;;;;-144.86;100.00;65694.16;5081879;28;20349;-61
2023/07/05 07:31:28;;;;;;;;;;;;;;;-144.86;100.00;65694.16;5085284;28;19924;-62
2023/07/05 07:33:55;;;;;;;;;;;;;;;-144.86;100.00;65694.16;5082967;28;20143;-61
2023/07/05 07:36:24;;;;;;;;;;;;;;;-144.86;100.00;65694.16;5093160;28;19927;-62
2023/07/05 07:38:52;;;;;;;;;;;;;;;-144.86;100.00;65694.16;5072969;28;21220;-61
2023/07/05 07:41:20;;;;;;;;;;;;;;;-144.86;100.00;65694.16;5082079;28;19932;-62
2023/07/05 07:43:50;;;;;;;;;;;;;;;-144.86;100.00;65694.16;5086757;28;19943;-61
2023/07/05 07:46:19;;;;;;;;;;;;;;;-144.86;100.00;65694.16;5049637;28;19929;-62
2023/07/05 07:48:49;;;;;;;;;;;;;;;-144.86;100.00;65694.16;5049719;28;19925;-62
2023/07/05 07:51:17;;;;;;;;;;;;;;;-144.86;100.00;65694.16;5045970;28;20666;-62
2023/07/05 07:54:03;;;;;;;;;;;;;;;-144.86;100.00;65694.16;5044290;28;20647;-62
2023/07/05 07:56:31;;;;;;;;;;;;;;;-144.86;100.00;65694.16;5047464;28;20389;-61
2023/07/05 07:58:58;;;;;;;;;;;;;;;-144.86;100.00;65694.16;5048000;28;20316;-61
2023/07/05 08:01:29;;;;;;;;;;;;;;;-144.86;100.00;65694.16;5047053;28;19929;-62
2023/07/05 08:03:58;;;;;;;;;;;;;;;-144.86;100.00;65694.16;5046850;28;19928;-61
2023/07/05 08:06:28;;;;;;;;;;;;;;;-144.86;100.00;65694.16;5056836;28;20015;-62
2023/07/05 08:08:56;;;;;;;;;;;;;;;-144.86;100.00;65694.16;5046184;28;20305;-61
2023/07/05 08:11:24;;;;;;;;;;;;;;;-144.86;100.00;65694.16;5048177;28;20447;-62
2023/07/05 08:13:52;;;;;;;;;;;;;;;-144.86;100.00;65694.16;5048260;28;19932;-62
2023/07/05 08:16:22;;;;;;;;;;;;;;;-144.86;100.00;65694.16;5050570;28;19932;-62
2023/07/05 08:18:51;;;;;;;;;;;;;;;-144.86;100.00;65694.16;5061624;28;19925;-62
2023/07/05 08:21:19;;;;;;;;;;;;;;;-144.86;100.00;65694.16;5045009;28;19953;-62
2023/07/05 08:23:47;;;;;;;;;;;;;;;-144.86;100.00;65694.16;5045107;28;19925;-61
2023/07/05 08:26:15;;;;;;;;;;;;;;;-144.86;100.00;65694.16;5042134;28;20366;-63
2023/07/05 08:28:43;;;;;;;;;;;;;;;-144.86;100.00;65694.16;5047920;28;19975;-62
2023/07/05 08:31:11;;;;;;;;;;;;;;;-144.86;100.00;65694.16;5046817;28;19929;-62
2023/07/05 08:33:39;;;;;;;;;;;;;;;-144.86;100.00;65694.16;5046826;28;19925;-61
2023/07/05 08:36:09;;;;;;;;;;;;;;;-144.86;100.00;65694.16;5050697;28;20026;-62
2023/07/05 08:38:39;;;;;;;;;;;;;;;-144.86;100.00;65694.16;5047365;28;19929;-62
2023/07/05 08:41:12;;;;;;;;;;;;;;;-144.86;100.00;65694.16;5046392;28;20441;-68
2023/07/05 08:43:40;;;;;;;;;;;;;;;-144.86;100.00;65694.16;5064113;28;19925;-67
2023/07/05 08:46:11;;;;;;;;;;;;;;;-144.86;100.00;65694.16;5079300;28;19946;-67
2023/07/05 08:48:39;;;;;;;;;;;;;;;-144.86;100.00;65694.16;5078407;28;19924;-66
2023/07/05 08:51:09;;;;;;;;;;;;;;;-144.86;100.00;65694.16;5086874;28;19924;-69
2023/07/05 08:53:47;;;;;;;;;;;;;;;-144.86;100.00;65694.16;5065852;28;19928;-67
2023/07/05 08:56:16;;;;;;;;;;;;;;;-144.86;100.00;65694.16;5088219;28;19924;-67
2023/07/05 08:58:44;;;;;;;;;;;;;;;-144.86;100.00;65694.16;5083787;28;19935;-66
2023/07/05 09:01:14;;;;;;;;;;;;;;;-144.86;100.00;65694.16;5066905;28;19925;-67
2023/07/05 09:03:43;;;;;;;;;;;;;;;-144.86;100.00;65694.16;5088976;28;19932;-67
2023/07/05 09:06:18;;;;;;;;;;;;;;;-144.86;100.00;65694.16;5086907;28;19939;-68
2023/07/05 09:09:07;;;;;;;;;;;;;;;-144.86;100.00;65694.16;5086239;28;20426;-68
2023/07/05 09:11:39;;;;;;;;;;;;;;;-144.86;100.00;65694.16;5088085;28;19924;-67
2023/07/05 09:14:12;;;;;;;;;;;;;;;-144.86;100.00;65694.16;5084550;28;20283;-68
2023/07/05 09:16:41;;;;;;;;;;;;;;;-144.86;100.00;65694.16;5084621;28;19924;-65
2023/07/05 09:19:11;;;;;;;;;;;;;;;-144.86;100.00;65694.16;5078177;28;19993;-67
2023/07/05 09:21:40;;;;;;;;;;;;;;;-144.86;100.00;65694.16;5072187;28;20365;-67
2023/07/05 09:24:10;;;;;;;;;;;;;;;-144.86;100.00;65694.16;5065618;28;19997;-67
2023/07/05 09:26:39;;;;;;;;;;;;;;;-144.86;100.00;65694.16;5071807;28;19924;-67
2023/07/05 09:29:13;;;;;;;;;;;;;;;-144.86;100.00;65694.16;5081055;28;19936;-67
2023/07/05 09:31:43;;;;;;;;;;;;;;;-144.86;100.00;65694.16;5082072;28;19928;-67
2023/07/05 09:34:18;;;;;;;;;;;;;;;-144.86;100.00;65694.16;5082267;28;19924;-67
2023/07/05 09:36:48;;;;;;;;;;;;;;;-144.86;100.00;65694.16;5070987;28;20297;-67
2023/07/05 09:39:20;;;;;;;;;;;;;;;-144.86;100.00;65694.16;5076814;28;19955;-67
2023/07/05 09:41:49;;;;;;;;;;;;;;;-144.86;100.00;65694.16;5080357;28;19935;-68
2023/07/05 09:44:18;;;;;;;;;;;;;;;-144.86;100.00;65694.16;5080809;28;20211;-67
2023/07/05 09:46:46;;;;;;;;;;;;;;;-144.86;100.00;65694.16;5072661;28;19931;-67
2023/07/05 09:49:15;;;;;;;;;;;;;;;-144.86;100.00;65694.16;5069390;28;19924;-68
2023/07/05 09:51:45;;;;;;;;;;;;;;;-144.86;100.00;65694.16;5083238;28;20020;-65
2023/07/05 09:54:15;;;;;;;;;;;;;;;-144.86;100.00;65694.16;5068790;28;19928;-67
2023/07/05 09:56:57;;;;;;;;;;;;;;;-144.86;100.00;65694.16;5083078;28;19924;-66
2023/07/05 09:59:27;;;;;;;;;;;;;;;-144.86;100.00;65694.16;5083549;28;20374;-68
2023/07/05 10:01:56;;;;;;;;;;;;;;;-144.86;100.00;65694.16;5083799;28;19932;-69
2023/07/05 10:04:26;;;;;;;;;;;;;;;-144.86;100.00;65694.16;5083790;28;20302;-67
2023/07/05 10:06:53;;;;;;;;;;;;;;;-144.86;100.00;65694.16;5081127;28;19939;-67
2023/07/05 10:09:23;;;;;;;;;;;;;;;-144.86;100.00;65694.16;5085834;28;19962;-68
2023/07/05 10:11:53;;;;;;;;;;;;;;;-144.86;100.00;65694.16;5081521;28;19938;-67
2023/07/05 10:14:21;;;;;;;;;;;;;;;-144.86;100.00;65694.16;5089111;28;20789;-67
2023/07/05 10:16:51;;;;;;;;;;;;;;;-144.86;100.00;65694.16;5079673;28;19959;-68
2023/07/05 10:19:20;;;;;;;;;;;;;;;-144.86;100.00;65694.16;5076050;28;20011;-67
2023/07/05 10:21:50;;;;;;;;;;;;;;;-144.86;100.00;65694.16;5094401;28;19928;-67
2023/07/05 10:24:18;;;;;;;;;;;;;;;-144.86;100.00;65694.16;5092930;28;20465;-67
2023/07/05 10:26:49;;;;;;;;;;;;;;;-144.86;100.00;65694.16;5088302;28;20335;-68
2023/07/05 10:29:21;;;;;;;;;;;;;;;-144.86;100.00;65694.16;5072646;28;19927;-67
2023/07/05 10:31:52;;;;;;;;;;;;;;;-144.86;100.00;65694.16;5093752;28;20414;-68
2023/07/05 10:34:21;;;;;;;;;;;;;;;-144.86;100.00;65694.16;5082688;28;19928;-68
2023/07/05 10:36:49;;;;;;;;;;;;;;;-144.86;100.00;65694.16;5083650;28;20389;-67
2023/07/05 10:39:21;;;;;;;;;;;;;;;-144.86;100.00;65694.16;5072302;28;20048;-67
2023/07/05 10:41:50;;;;;;;;;;;;;;;-144.86;100.00;65694.16;5084603;28;19925;-68
2023/07/05 10:44:20;;;;;;;;;;;;;;;-144.86;100.00;65694.16;5070769;28;19928;-68
2023/07/05 10:46:48;;;;;;;;;;;;;;;-144.86;100.00;65694.16;5044715;28;19939;-68
2023/07/05 10:49:17;;;;;;;;;;;;;;;-144.86;100.00;65694.16;5049971;28;19929;-67
2023/07/05 10:51:45;;;;;;;;;;;;;;;-144.86;100.00;65694.16;5048889;28;20402;-67
2023/07/05 10:54:15;;;;;;;;;;;;;;;-144.86;100.00;65694.16;5051910;28;19933;-67
2023/07/05 10:56:43;;;;;;;;;;;;;;;-144.86;100.00;65694.16;5045170;28;19967;-67
2023/07/05 10:59:13;;;;;;;;;;;;;;;-144.86;100.00;65694.16;5046978;28;19929;-67
2023/07/05 11:01:43;;;;;;;;;;;;;;;-144.86;100.00;65694.16;5047744;28;19972;-67
2023/07/05 11:04:12;;;;;;;;;;;;;;;-144.86;100.00;65694.16;5046671;28;19925;-67
2023/07/05 11:06:40;;;;;;;;;;;;;;;-144.86;100.00;65694.16;5049893;28;19924;-67
2023/07/05 11:09:10;;;;;;;;;;;;;;;-144.86;100.00;65694.16;5053805;28;19970;-67
2023/07/05 11:11:40;;;;;;;;;;;;;;;-144.86;100.00;65694.16;5046933;28;19940;-66
2023/07/05 11:14:09;;;;;;;;;;;;;;;-144.86;100.00;65694.16;5053495;28;19967;-68
2023/07/05 11:16:39;;;;;;;;;;;;;;;-144.86;100.00;65694.16;5049247;28;19929;-66
2023/07/05 11:19:09;;;;;;;;;;;;;;;-144.86;100.00;65694.16;5065060;28;19928;-67
2023/07/05 11:21:38;;;;;;;;;;;;;;;-144.86;100.00;65694.16;5044238;28;19933;-67
2023/07/05 11:24:06;;;;;;;;;;;;;;;-144.86;100.00;65694.16;5049416;28;19925;-67
2023/07/05 11:26:35;;;;;;;;;;;;;;;-144.86;100.00;65694.16;5042861;28;19928;-66
2023/07/05 11:29:18;;;;;;;;;;;;;;;-144.86;100.00;65694.16;5051977;28;19932;-68
2023/07/05 11:31:58;;;;;;;;;;;;;;;-144.86;100.00;65694.16;5054701;28;19932;-68
2023/07/05 11:34:42;;;;;;;;;;;;;;;-144.86;100.00;65694.16;5051269;28;19929;-68
2023/07/05 11:37:28;;;;;;;;;;;;;;;-144.86;100.00;65694.16;5049331;28;20009;-67
2023/07/05 11:39:56;;;;;;;;;;;;;;;-144.86;100.00;65694.16;5049516;28;19932;-67
2023/07/05 11:42:40;;;;;;;;;;;;;;;-144.86;100.00;65694.16;5049419;28;19994;-67
2023/07/05 11:45:20;;;;;;;;;;;;;;;-144.86;100.00;65694.16;5062290;28;19924;-68
2023/07/05 11:47:51;;;;;;;;;;;;;;;-144.86;100.00;65694.16;5091922;28;19985;-65
2023/07/05 11:50:19;;;;;;;;;;;;;;;-144.86;100.00;65694.16;5090570;28;20035;-68
2023/07/05 11:52:49;;;;;;;;;;;;;;;-144.86;100.00;65694.16;5068858;28;19924;-68
2023/07/05 11:55:18;;;;;;;;;;;;;;;-144.86;100.00;65694.16;5086959;28;20856;-68
2023/07/05 11:57:47;;;;;;;;;;;;;;;-144.86;100.00;65694.16;5089736;28;19924;-68
2023/07/05 12:00:18;;;;;;;;;;;;;;;-144.86;100.00;65694.16;5088293;28;19928;-68
2023/07/05 12:02:53;;;;;;;;;;;;;;;-144.86;100.00;65694.16;5083652;28;19924;-68
2023/07/05 12:05:24;;;;;;;;;;;;;;;-144.86;100.00;65694.16;5088898;28;19928;-68
2023/07/05 12:07:53;;;;;;;;;;;;;;;-144.86;100.00;65694.16;5085731;28;19924;-68
2023/07/05 12:10:23;;;;;;;;;;;;;;;-144.86;100.00;65694.16;5086023;28;20460;-68
2023/07/05 12:12:51;;;;;;;;;;;;;;;-144.86;100.00;65694.16;5066058;28;19963;-68
2023/07/05 12:15:19;;;;;;;;;;;;;;;-144.86;100.00;65694.16;5073636;28;19924;-68
2023/07/05 12:17:47;;;;;;;;;;;;;;;-144.86;100.00;65694.16;5069712;28;19931;-70
2023/07/05 12:20:21;;;;;;;;;;;;;;;-144.86;100.00;65694.16;5081806;28;19936;-67
2023/07/05 12:22:49;;;;;;;;;;;;;;;-144.86;100.00;65694.16;5073280;28;19925;-68
2023/07/05 12:25:17;;;;;;;;;;;;;;;-144.86;100.00;65694.16;5084035;28;19927;-69
2023/07/05 12:27:45;;;;;;;;;;;;;;;-144.86;100.00;65694.16;5089990;28;19928;-67
2023/07/05 12:30:16;;;;;;;;;;;;;;;-144.86;100.00;65694.16;5086863;28;20269;-68